Terminal Aerodrome Forecast
Issued by NWS Blacksburg, VA

Home | Current Version | Previous Version | Text Only | Print | Product List | Glossary On
Versions: 1 2 3 4 5 6 7 8 9 10 11 12 13 14 15 16 17 18 19 20
000
FTUS41 KRNK 230104 AAA
TAFBLF
TAF AMD
KBLF 230104Z 2301/2324 VRB06KT P6SM VCSH OVC004
     FM230400 11010G28KT 6SM -SHRA OVC004
     FM230700 09009KT 4SM RA OVC005
     FM231100 13006KT 3SM RA OVC003
     FM231700 29005KT 6SM -RA OVC010
     FM232300 29009KT 6SM -SHRA OVC020=

USA.gov is the U.S. government's official web portal to all federal, state and local government web resources and services.